Time;durP1;ratioP1;P1;durP2;ratioP2;P2;SDS_P1;SDS_P2;PMS_P1;PMS_P2;Temp;Humidity;BMP_temperature;BMP_pressure;BME280_temperature;BME280_humidity;BME280_pressure;Samples;Min_cycle;Max_cycle;Signal;HPM_P1;HPM_P2
2022/12/21 00:01:41;;;;;;;3.10;2.80;;;;;;;5.95;90.55;99951.47;10502083;28;20249;-86
2022/12/21 00:07:03;;;;;;;3.53;3.27;;;;;;;5.71;91.12;99964.88;10513980;28;20219;-86
2022/12/21 00:12:26;;;;;;;4.00;3.70;;;;;;;5.43;93.46;99962.06;10497642;28;20214;-86
2022/12/21 00:17:48;;;;;;;6.07;4.27;;;;;;;5.61;92.59;99965.09;10481862;28;20657;-86
2022/12/21 00:23:10;;;;;;;7.67;5.40;;;;;;;5.49;93.24;99968.41;10495791;28;20222;-86
2022/12/21 00:28:33;;;;;;;9.10;7.40;;;;;;;5.28;92.86;99967.97;10502209;28;20199;-86
2022/12/21 00:33:57;;;;;;;9.88;8.55;;;;;;;5.40;93.57;99971.06;10495792;28;20479;-86
2022/12/21 00:39:19;;;;;;;10.10;8.70;;;;;;;5.58;92.89;99974.91;10491145;28;20203;-86
2022/12/21 00:44:42;;;;;;;10.07;8.83;;;;;;;5.70;92.45;99968.81;10481348;28;20268;-86
2022/12/21 00:50:05;;;;;;;10.80;9.50;;;;;;;5.56;93.14;99972.44;10479377;28;20602;-85
2022/12/21 00:55:27;;;;;;;10.73;9.40;;;;;;;5.74;92.00;99965.06;10481109;28;20222;-86
2022/12/21 01:00:55;;;;;;;10.43;8.30;;;;;;;5.54;93.12;99966.31;10498003;28;20592;-85
2022/12/21 01:06:22;;;;;;;10.63;9.60;;;;;;;5.63;92.85;99957.22;10511689;28;20219;-86
2022/12/21 01:11:45;;;;;;;14.40;10.07;;;;;;;5.50;93.04;99959.69;10487164;28;20607;-85
2022/12/21 01:17:08;;;;;;;9.93;8.20;;;;;;;5.52;93.07;99968.59;10494960;28;20645;-86
2022/12/21 01:22:30;;;;;;;11.47;9.97;;;;;;;5.53;93.12;99973.03;10486191;28;20207;-86
2022/12/21 01:27:52;;;;;;;13.30;10.20;;;;;;;5.33;93.94;99981.84;10517741;28;20259;-86
2022/12/21 01:33:17;;;;;;;12.27;10.57;;;;;;;5.13;94.06;99982.19;10489576;28;20217;-85
2022/12/21 01:38:41;;;;;;;13.00;11.53;;;;;;;5.04;95.04;99986.84;10512362;28;20203;-86
2022/12/21 01:44:43;;;;;;;13.47;11.93;;;;;;;5.43;93.40;99980.81;10498184;28;20540;-86
2022/12/21 01:50:24;;;;;;;18.53;12.37;;;;;;;5.34;93.73;99988.25;10502796;28;20207;-86
2022/12/21 01:55:49;;;;;;;16.27;12.47;;;;;;;5.32;93.95;99990.53;10515879;28;20211;-86
2022/12/21 02:01:12;;;;;;;15.67;12.97;;;;;;;5.47;93.26;99982.69;10488999;28;20672;-86
2022/12/21 02:06:40;;;;;;;18.90;13.23;;;;;;;5.31;94.11;99988.88;10485551;28;20260;-86
2022/12/21 02:12:05;;;;;;;20.63;14.37;;;;;;;5.21;94.17;100001.06;10486174;28;20194;-87
2022/12/21 02:17:49;;;;;;;19.07;14.77;;;;;;;5.56;92.95;100002.34;10524613;28;20198;-88
2022/12/21 02:23:33;;;;;;;19.67;14.90;;;;;;;5.50;92.75;99998.81;10505165;28;20243;-86
2022/12/21 02:29:31;;;;;;;20.50;14.13;;;;;;;5.51;92.95;100003.28;10521897;28;20207;-86
2022/12/21 02:35:12;;;;;;;19.53;14.23;;;;;;;5.50;92.86;99995.22;10527137;28;20202;-87
2022/12/21 02:40:55;;;;;;;23.03;16.27;;;;;;;5.50;93.29;99990.44;10521047;28;20708;-86
2022/12/21 02:46:41;;;;;;;26.97;17.10;;;;;;;5.41;92.98;99997.88;10517977;28;20568;-87
2022/12/21 02:52:26;;;;;;;24.53;16.27;;;;;;;5.35;93.99;99985.16;10498664;28;20195;-86
2022/12/21 02:57:49;;;;;;;27.50;16.90;;;;;;;5.40;93.30;99998.19;10496093;28;20222;-84
2022/12/21 03:03:50;;;;;;;23.40;15.23;;;;;;;5.52;92.62;99993.75;10513122;28;20203;-85
2022/12/21 03:09:52;;;;;;;17.90;13.70;;;;;;;5.58;92.53;99986.94;10538291;28;20190;-84
2022/12/21 03:15:18;;;;;;;20.47;13.73;;;;;;;5.69;90.98;99989.50;10486609;28;20515;-83
2022/12/21 03:21:02;;;;;;;18.10;13.13;;;;;;;5.40;92.28;99999.03;10494586;28;20207;-83
2022/12/21 03:26:32;;;;;;;19.00;13.27;;;;;;;5.65;90.58;99988.47;10506818;28;20683;-84
2022/12/21 03:32:01;;;;;;;15.10;11.17;;;;;;;5.68;90.62;99990.66;10518836;28;20221;-85
2022/12/21 03:37:30;;;;;;;14.90;10.97;;;;;;;5.57;91.25;99988.06;10507173;28;20260;-86
2022/12/21 03:42:57;;;;;;;13.80;10.20;;;;;;;5.63;91.47;99990.78;10500553;28;20276;-85
2022/12/21 03:48:44;;;;;;;13.40;9.60;;;;;;;5.45;91.86;99982.16;10486625;28;20278;-87
2022/12/21 03:54:17;;;;;;;14.50;10.53;;;;;;;5.45;91.83;99975.75;10507890;28;20599;-86
2022/12/21 03:59:45;;;;;;;15.27;10.50;;;;;;;5.17;92.53;99960.91;10508486;28;20211;-85
2022/12/21 04:05:35;;;;;;;16.83;11.70;;;;;;;5.43;91.67;99950.91;10548400;28;20251;-85
2022/12/21 04:10:58;;;;;;;23.70;12.70;;;;;;;5.40;91.98;99951.50;10549279;28;20219;-86
2022/12/21 04:16:20;;;;;;;17.13;11.93;;;;;;;5.32;92.69;99952.25;10544077;28;20534;-85
2022/12/21 04:21:43;;;;;;;21.53;13.50;;;;;;;5.35;92.24;99943.25;10514610;28;20187;-86
2022/12/21 04:32:50;;;;;;;24.30;13.90;;;;;;;5.33;92.51;99937.13;10524362;28;20214;-85
2022/12/21 04:38:13;;;;;;;21.57;13.63;;;;;;;5.16;92.99;99936.91;10494985;28;20203;-86
2022/12/21 04:43:36;;;;;;;24.50;12.07;;;;;;;5.10;93.46;99926.97;10505492;28;20207;-87
2022/12/21 04:48:58;;;;;;;20.73;13.47;;;;;;;5.43;91.96;99916.53;10509409;27;20272;-86
2022/12/21 04:54:20;;;;;;;20.20;13.10;;;;;;;5.15;92.71;99924.06;10500911;28;20226;-86
2022/12/21 04:59:44;;;;;;;20.87;12.30;;;;;;;5.26;92.54;99930.28;10510659;28;20248;-86
2022/12/21 05:05:07;;;;;;;24.03;13.10;;;;;;;5.36;92.08;99928.13;10510799;28;20218;-85
2022/12/21 05:10:29;;;;;;;18.10;12.43;;;;;;;5.24;92.87;99934.22;10518888;28;20218;-85
2022/12/21 05:15:52;;;;;;;17.90;11.73;;;;;;;5.56;91.08;99924.91;10480950;28;20222;-85
2022/12/21 05:21:16;;;;;;;15.10;10.93;;;;;;;5.37;90.97;99932.56;10498101;28;20206;-86
2022/12/21 05:26:39;;;;;;;15.37;10.90;;;;;;;5.35;90.71;99931.25;10482707;28;20875;-86
2022/12/21 05:32:03;;;;;;;16.70;11.97;;;;;;;5.76;89.43;99929.22;10491694;28;20510;-86
2022/12/21 05:37:27;;;;;;;20.90;11.93;;;;;;;5.51;90.85;99927.78;10502404;28;20191;-86
2022/12/21 05:42:49;;;;;;;14.40;10.13;;;;;;;5.47;90.73;99921.19;10490128;28;20603;-84
2022/12/21 05:48:11;;;;;;;17.50;11.27;;;;;;;5.15;93.34;99924.06;10507212;28;20499;-84
2022/12/21 05:53:35;;;;;;;19.23;10.60;;;;;;;5.10;92.60;99921.38;10513133;28;20248;-83
2022/12/21 05:58:57;;;;;;;16.63;10.63;;;;;;;5.26;92.26;99919.09;10541438;28;20631;-83
2022/12/21 06:04:19;;;;;;;17.80;10.07;;;;;;;5.45;91.14;99919.84;10526851;28;20210;-84
2022/12/21 06:09:41;;;;;;;17.23;10.70;;;;;;;5.39;91.83;99919.09;10515577;28;20261;-83
2022/12/21 06:15:07;;;;;;;17.30;10.50;;;;;;;5.18;93.33;99926.25;10478326;28;20231;-82
2022/12/21 06:20:34;;;;;;;19.43;10.33;;;;;;;5.25;92.39;99923.88;10517613;28;20512;-84
2022/12/21 06:25:58;;;;;;;21.47;11.13;;;;;;;5.24;91.79;99919.44;10526498;28;20218;-84
2022/12/21 06:31:21;;;;;;;15.87;10.20;;;;;;;5.38;91.72;99913.81;10509372;28;20232;-84
2022/12/21 06:36:43;;;;;;;16.60;11.03;;;;;;;5.42;91.31;99907.31;10541080;28;20194;-84
2022/12/21 06:42:05;;;;;;;19.77;10.37;;;;;;;5.16;91.62;99917.34;10510005;28;20199;-84
2022/12/21 06:47:27;;;;;;;21.53;11.03;;;;;;;5.34;91.04;99910.03;10493068;28;20287;-84
2022/12/21 06:52:49;;;;;;;21.40;11.43;;;;;;;5.35;91.10;99912.50;10493391;28;20280;-84
2022/12/21 06:58:13;;;;;;;21.43;11.20;;;;;;;5.33;91.36;99909.19;10519295;28;20210;-83
2022/12/21 07:03:37;;;;;;;17.17;9.90;;;;;;;5.54;90.26;99910.41;10512724;28;20611;-84
2022/12/21 07:09:00;;;;;;;16.57;10.03;;;;;;;5.52;90.07;99912.69;10516472;28;20226;-84
2022/12/21 07:14:22;;;;;;;15.80;9.37;;;;;;;5.52;90.07;99912.69;10522549;28;20491;-85
2022/12/21 07:19:44;;;;;;;18.27;9.27;;;;;;;5.40;90.90;99920.75;10507114;28;20198;-84
2022/12/21 07:25:06;;;;;;;16.50;9.33;;;;;;;5.45;90.82;99923.47;10507486;28;20218;-82
2022/12/21 07:30:29;;;;;;;13.03;8.17;;;;;;;5.38;91.55;99937.00;10513375;28;20244;-82
2022/12/21 07:35:57;;;;;;;12.90;8.00;;;;;;;5.38;90.82;99928.63;10504240;28;20202;-83
2022/12/21 07:41:19;;;;;;;11.93;7.93;;;;;;;5.51;90.77;99922.22;10496049;28;20195;-82
2022/12/21 07:46:41;;;;;;;13.27;7.30;;;;;;;5.64;89.88;99928.09;10493766;28;20219;-82
2022/12/21 07:52:03;;;;;;;14.23;7.93;;;;;;;5.47;90.65;99926.78;10482343;28;20203;-82
2022/12/21 07:57:25;;;;;;;11.43;7.07;;;;;;;5.22;91.81;99903.00;10525019;28;20568;-82
2022/12/21 08:02:50;;;;;;;17.17;8.03;;;;;;;5.18;92.02;99934.63;10521106;28;20240;-82
2022/12/21 08:08:12;;;;;;;14.97;8.10;;;;;;;5.66;90.34;99939.78;10550501;27;20214;-83
2022/12/21 08:13:34;;;;;;;13.27;7.73;;;;;;;5.58;90.44;99945.00;10510731;28;20238;-83
2022/12/21 08:18:57;;;;;;;16.47;10.00;;;;;;;5.48;90.10;99948.00;10540366;28;20240;-84
2022/12/21 08:24:19;;;;;;;16.20;9.47;;;;;;;5.69;89.99;99944.78;10523700;28;20541;-83
2022/12/21 08:29:41;;;;;;;17.17;10.63;;;;;;;5.59;89.67;99952.25;10495973;28;20279;-81
2022/12/21 08:35:03;;;;;;;20.90;10.10;;;;;;;5.20;93.31;99954.72;10494704;28;20190;-81
2022/12/21 08:40:25;;;;;;;22.17;8.90;;;;;;;5.56;90.78;99947.28;10532524;28;20202;-81
2022/12/21 08:45:48;;;;;;;18.30;9.80;;;;;;;5.32;91.96;99954.22;10514777;28;20237;-81
2022/12/21 08:51:10;;;;;;;20.87;10.17;;;;;;;5.38;91.82;99964.97;10520526;28;20199;-82
2022/12/21 08:56:33;;;;;;;21.33;10.23;;;;;;;5.61;92.42;99970.69;10506789;28;20515;-82
2022/12/21 09:01:55;;;;;;;16.27;9.50;;;;;;;5.77;91.05;99953.25;10512984;28;20216;-83
2022/12/21 09:07:17;;;;;;;16.60;10.23;;;;;;;5.53;91.65;99959.06;10502267;28;20319;-83
2022/12/21 09:12:39;;;;;;;16.33;10.40;;;;;;;5.22;91.87;99969.22;10485969;28;20283;-84
2022/12/21 09:18:02;;;;;;;37.03;17.87;;;;;;;5.04;92.52;99975.66;10500678;28;20232;-83
2022/12/21 09:23:24;;;;;;;50.23;21.13;;;;;;;5.14;91.91;99967.09;10528777;28;20222;-83
2022/12/21 09:28:47;;;;;;;59.97;22.50;;;;;;;5.15;91.22;99969.59;10516112;28;20222;-83
2022/12/21 09:34:09;;;;;;;44.77;21.87;;;;;;;5.21;91.00;99978.72;10509416;28;20198;-84
2022/12/21 09:39:31;;;;;;;71.73;27.70;;;;;;;5.19;90.79;99978.19;10486148;28;20194;-83
2022/12/21 09:45:02;;;;;;;59.57;24.87;;;;;;;4.92;92.47;99986.50;10497683;28;20186;-84
2022/12/21 09:50:31;;;;;;;47.97;22.23;;;;;;;5.22;91.50;99980.38;10518200;28;20656;-84
2022/12/21 09:55:55;;;;;;;57.10;23.97;;;;;;;5.24;90.69;99980.91;10510361;28;20238;-83
2022/12/21 10:02:12;;;;;;;43.80;20.50;;;;;;;5.47;90.22;99982.69;10516823;28;20222;-85
2022/12/21 10:08:13;;;;;;;61.10;23.57;;;;;;;4.72;94.64;99985.69;10478906;28;20223;-84
2022/12/21 10:13:44;;;;;;;49.63;20.83;;;;;;;4.77;93.63;99991.22;10509890;28;20284;-84
2022/12/21 10:19:16;;;;;;;56.57;23.33;;;;;;;4.76;93.02;100000.72;10520013;28;20182;-84
2022/12/21 10:24:56;;;;;;;64.53;24.87;;;;;;;4.68;94.57;100020.97;10508623;28;20248;-84
2022/12/21 10:30:18;;;;;;;54.57;21.00;;;;;;;4.79;93.51;100005.69;10499388;28;20646;-83
2022/12/21 10:35:41;;;;;;;42.53;18.53;;;;;;;4.55;93.88;100010.56;10495779;28;20203;-83
2022/12/21 10:41:08;;;;;;;33.43;14.87;;;;;;;4.75;92.60;100013.00;10481748;28;20198;-83
2022/12/21 10:46:36;;;;;;;32.37;14.97;;;;;;;5.01;91.95;100004.19;10507995;28;20627;-84
2022/12/21 10:51:58;;;;;;;27.63;14.43;;;;;;;5.00;90.47;100010.91;10494555;28;20499;-84
2022/12/21 10:57:25;;;;;;;24.23;12.57;;;;;;;4.89;90.27;100005.50;10516631;28;20267;-85
2022/12/21 11:02:48;;;;;;;19.23;10.27;;;;;;;5.01;90.45;100018.16;10508384;28;20190;-84
2022/12/21 11:08:13;;;;;;;16.30;8.83;;;;;;;5.02;89.13;100011.44;10545572;28;20272;-84
2022/12/21 11:13:39;;;;;;;17.30;9.77;;;;;;;4.73;91.26;100017.22;10499087;28;20526;-85
2022/12/21 11:19:03;;;;;;;15.23;9.77;;;;;;;4.51;91.20;100015.09;10527198;28;20194;-85
2022/12/21 11:24:37;;;;;;;16.63;10.17;;;;;;;5.09;87.78;100009.09;10495656;28;20210;-85
2022/12/21 11:30:03;;;;;;;16.23;9.60;;;;;;;4.80;87.96;100004.56;10520615;28;20238;-85
2022/12/21 11:35:27;;;;;;;16.13;8.43;;;;;;;4.52;87.87;100011.16;10479141;28;20264;-85
2022/12/21 11:40:57;;;;;;;14.27;7.67;;;;;;;4.58;86.07;100011.94;10492393;28;20579;-84
2022/12/21 11:46:37;;;;;;;14.47;7.20;;;;;;;4.50;86.62;100005.88;10476848;28;20215;-85
2022/12/21 11:52:18;;;;;;;15.03;7.93;;;;;;;4.88;83.96;100008.59;10491405;28;20198;-84
2022/12/21 11:57:52;;;;;;;14.40;7.47;;;;;;;4.82;83.89;100016.25;10541966;28;20268;-84
2022/12/21 12:03:21;;;;;;;19.77;10.47;;;;;;;5.15;84.10;100016.25;10521110;28;20199;-84
2022/12/21 12:08:54;;;;;;;13.90;10.53;;;;;;;4.89;85.26;99999.09;10492300;28;20219;-85
2022/12/21 12:14:42;;;;;;;15.27;9.27;;;;;;;4.64;85.87;100005.13;10517879;28;20257;-84
2022/12/21 12:20:16;;;;;;;12.13;7.43;;;;;;;4.68;84.52;99995.84;10505671;28;20267;-85
2022/12/21 12:26:00;;;;;;;13.63;6.53;;;;;;;4.67;84.20;100002.53;10492136;28;20264;-84
2022/12/21 12:31:25;;;;;;;12.10;7.03;;;;;;;4.57;85.34;100008.31;10518723;28;20232;-85
2022/12/21 12:37:14;;;;;;;15.83;6.30;;;;;;;4.80;84.21;99990.59;10523414;28;20194;-84
2022/12/21 12:42:59;;;;;;;10.83;6.07;;;;;;;4.71;84.36;100005.56;10522422;28;20202;-84
2022/12/21 12:48:29;;;;;;;12.47;6.10;;;;;;;4.51;84.68;99998.34;10513662;28;20290;-85
2022/12/21 12:53:58;;;;;;;13.53;6.50;;;;;;;4.46;84.38;99996.44;10504692;28;20256;-84
2022/12/21 12:59:38;;;;;;;14.97;5.17;;;;;;;4.77;83.00;99996.78;10496018;28;20221;-85
2022/12/21 13:05:28;;;;;;;14.90;5.80;;;;;;;4.68;82.99;99997.78;10508188;28;20193;-85
2022/12/21 13:10:54;;;;;;;16.27;5.80;;;;;;;4.76;83.21;99983.97;10512535;28;20210;-84
2022/12/21 13:16:39;;;;;;;12.07;5.10;;;;;;;4.74;83.24;99969.47;10483323;28;20577;-85
2022/12/21 13:22:04;;;;;;;13.10;4.97;;;;;;;4.60;83.80;99974.19;10504898;28;20198;-85
2022/12/21 13:27:29;;;;;;;11.47;4.80;;;;;;;4.79;82.94;99974.16;10480257;28;20275;-85
2022/12/21 13:32:59;;;;;;;10.87;5.17;;;;;;;4.57;83.56;99968.41;10505151;28;20206;-86
2022/12/21 13:38:47;;;;;;;13.73;5.53;;;;;;;4.97;81.92;99956.53;10506435;28;20224;-85
2022/12/21 13:44:25;;;;;;;11.20;5.53;;;;;;;4.62;83.07;99971.91;10520457;27;20228;-86
2022/12/21 13:50:13;;;;;;;10.17;5.37;;;;;;;4.19;84.79;99978.75;10504023;28;20241;-85
2022/12/21 13:56:11;;;;;;;9.10;4.37;;;;;;;4.35;83.29;99972.63;10534430;28;20271;-84
2022/12/21 14:02:06;;;;;;;14.13;4.43;;;;;;;4.60;82.25;99971.38;10530803;28;20578;-85
2022/12/21 14:07:38;;;;;;;12.37;4.30;;;;;;;4.57;82.24;99980.41;10514457;28;20238;-85
2022/12/21 14:13:37;;;;;;;13.77;4.83;;;;;;;4.49;82.46;99978.28;10516844;28;20215;-86
2022/12/21 14:19:02;;;;;;;12.33;4.07;;;;;;;4.63;81.99;99970.78;10513963;28;20251;-85
2022/12/21 14:24:31;;;;;;;9.93;4.27;;;;;;;4.59;82.06;99972.53;10513919;28;20495;-85
2022/12/21 14:30:13;;;;;;;10.10;4.37;;;;;;;4.45;82.10;99960.50;10497550;28;20250;-84
2022/12/21 14:35:42;;;;;;;10.30;3.90;;;;;;;4.13;83.32;99964.88;10523226;28;20243;-85
2022/12/21 14:41:10;;;;;;;7.67;3.80;;;;;;;4.29;83.00;99961.88;10499203;28;20250;-85
2022/12/21 14:46:32;;;;;;;11.93;3.40;;;;;;;4.44;81.77;99945.72;10530840;28;20225;-83
2022/12/21 14:51:59;;;;;;;8.13;3.70;;;;;;;4.45;80.97;99949.34;10543802;28;20199;-85
2022/12/21 14:57:23;;;;;;;8.23;4.17;;;;;;;3.98;83.33;99945.59;10527628;28;20263;-85
2022/12/21 15:02:54;;;;;;;5.73;3.43;;;;;;;4.18;82.19;99941.69;10512051;28;20287;-85
2022/12/21 15:08:21;;;;;;;6.07;3.33;;;;;;;4.18;82.10;99940.84;10531474;28;20223;-85
2022/12/21 15:13:51;;;;;;;6.40;3.23;;;;;;;4.47;80.70;99938.69;10513926;28;20252;-85
2022/12/21 15:19:40;;;;;;;6.87;3.57;;;;;;;4.05;82.39;99937.69;10515655;28;20191;-85
2022/12/21 15:25:13;;;;;;;5.17;3.03;;;;;;;4.11;82.00;99941.22;10521823;28;20270;-85
2022/12/21 15:30:39;;;;;;;8.33;4.57;;;;;;;3.99;82.38;99936.09;10521431;28;20227;-85
2022/12/21 15:36:12;;;;;;;7.63;3.90;;;;;;;3.78;83.43;99930.00;10481493;28;20203;-86
2022/12/21 15:41:42;;;;;;;6.13;4.33;;;;;;;4.00;83.00;99920.19;10519728;28;20190;-87
2022/12/21 15:47:25;;;;;;;8.50;4.03;;;;;;;3.86;83.38;99917.31;10487744;28;20299;-87
2022/12/21 15:52:55;;;;;;;9.87;4.33;;;;;;;3.94;81.87;99922.25;10493637;28;20240;-87
2022/12/21 15:58:24;;;;;;;13.37;7.47;;;;;;;3.57;83.45;99922.16;10492558;28;20242;-86
2022/12/21 16:03:47;;;;;;;8.23;4.63;;;;;;;3.84;82.26;99916.78;10485525;28;20222;-86
2022/12/21 16:09:11;;;;;;;10.50;4.23;;;;;;;4.10;81.42;99901.34;10487824;28;20245;-84
2022/12/21 16:14:34;;;;;;;7.73;3.30;;;;;;;3.86;81.84;99888.63;10474239;28;22252;-85
2022/12/21 16:19:57;;;;;;;5.97;3.17;;;;;;;3.88;81.12;99901.13;10516120;27;20214;-83
2022/12/21 16:25:21;;;;;;;7.70;3.03;;;;;;;3.84;81.86;99885.28;10471921;28;20222;-84
2022/12/21 16:31:01;;;;;;;7.80;3.60;;;;;;;3.59;82.42;99886.47;10478483;28;20237;-85
2022/12/21 16:36:24;;;;;;;6.67;3.37;;;;;;;3.84;81.83;99869.41;10457938;28;20275;-84
2022/12/21 16:41:47;;;;;;;7.43;2.60;;;;;;;3.95;80.66;99856.94;10474590;28;20210;-88
2022/12/21 16:47:14;;;;;;;5.43;2.23;;;;;;;3.59;80.90;99855.81;10503368;28;20362;-84
2022/12/21 16:52:43;;;;;;;3.40;2.10;;;;;;;3.59;80.86;99851.06;10517206;28;20241;-84
2022/12/21 16:58:12;;;;;;;5.13;1.97;;;;;;;3.90;79.46;99847.84;10511286;28;20214;-85
2022/12/21 17:03:36;;;;;;;3.90;1.97;;;;;;;3.90;79.10;99842.28;10492811;28;20303;-88
2022/12/21 17:08:59;;;;;;;4.40;1.30;;;;;;;3.82;78.60;99843.78;10480477;28;20722;-86
2022/12/21 17:14:22;;;;;;;1.87;1.40;;;;;;;3.88;78.68;99830.59;10499255;28;20303;-83
2022/12/21 17:19:55;;;;;;;4.27;1.70;;;;;;;3.72;79.18;99841.13;10483791;28;20230;-85
2022/12/21 17:25:18;;;;;;;4.63;1.60;;;;;;;3.52;79.06;99838.66;10488649;28;20202;-86
2022/12/21 17:30:43;;;;;;;3.10;1.27;;;;;;;3.61;79.02;99820.94;10497155;28;20559;-84
2022/12/21 17:36:14;;;;;;;3.53;2.07;;;;;;;3.62;79.06;99819.00;10502293;28;20708;-88
2022/12/21 17:41:40;;;;;;;3.23;1.93;;;;;;;3.76;78.66;99819.91;10521713;28;20730;-87
2022/12/21 17:47:08;;;;;;;4.93;3.17;;;;;;;3.87;78.45;99818.63;10506814;28;20318;-87
2022/12/21 17:52:31;;;;;;;4.00;2.53;;;;;;;3.80;78.22;99809.84;10492115;28;20271;-83
2022/12/21 17:57:56;;;;;;;5.17;2.00;;;;;;;3.69;78.54;99797.97;10477729;28;20238;-84
2022/12/21 18:03:26;;;;;;;4.30;1.80;;;;;;;3.70;78.17;99804.34;10535592;27;20618;-87
2022/12/21 18:08:50;;;;;;;3.67;2.00;;;;;;;3.78;77.68;99803.72;10495399;28;20254;-84
2022/12/21 18:14:13;;;;;;;2.23;1.33;;;;;;;3.62;78.00;99802.28;10491331;28;20242;-87
2022/12/21 18:19:35;;;;;;;2.70;1.40;;;;;;;3.70;77.84;99804.34;10485690;28;20237;-85
2022/12/21 18:24:58;;;;;;;4.13;1.70;;;;;;;3.83;77.45;99800.84;10506507;28;20229;-83
2022/12/21 18:30:22;;;;;;;5.70;1.33;;;;;;;3.88;77.33;99795.19;10489685;28;20245;-83
2022/12/21 18:35:44;;;;;;;2.77;1.57;;;;;;;3.78;76.93;99787.00;10507534;28;20255;-83
2022/12/21 18:41:12;;;;;;;4.03;2.27;;;;;;;3.82;77.88;99772.13;10492295;28;20207;-84
2022/12/21 18:46:38;;;;;;;6.43;3.13;;;;;;;4.01;77.21;99785.22;10513631;28;20602;-84
2022/12/21 18:52:00;;;;;;;1.33;1.00;;;;;;;3.85;77.96;99781.84;10505041;28;20296;-84
2022/12/21 18:57:23;;;;;;;2.13;1.20;;;;;;;4.04;78.31;99777.06;10510379;28;20283;-85
2022/12/21 19:02:48;;;;;;;3.07;0.90;;;;;;;3.70;80.12;99776.50;10512608;28;20230;-89
2022/12/21 19:08:12;;;;;;;3.63;1.07;;;;;;;3.87;80.94;99764.81;10501800;28;20299;-83
2022/12/21 19:13:34;;;;;;;2.90;1.20;;;;;;;3.64;82.74;99772.97;10491837;28;20266;-84
2022/12/21 19:18:57;;;;;;;3.10;1.10;;;;;;;3.70;83.31;99759.75;10503107;28;20218;-84
2022/12/21 19:24:28;;;;;;;2.20;0.83;;;;;;;3.76;84.32;99756.63;10506879;28;20229;-86
2022/12/21 19:29:51;;;;;;;4.17;1.20;;;;;;;3.70;85.93;99754.19;10512809;28;20258;-84
2022/12/21 19:35:13;;;;;;;3.23;0.90;;;;;;;3.44;87.14;99751.00;10516206;28;20214;-83
2022/12/21 19:40:37;;;;;;;1.97;1.13;;;;;;;3.45;86.30;99750.69;10513834;28;20226;-86
2022/12/21 19:46:00;;;;;;;2.93;1.07;;;;;;;3.51;86.95;99745.88;10497448;28;20283;-86
2022/12/21 19:51:24;;;;;;;1.93;0.83;;;;;;;3.66;86.36;99733.66;10520287;28;20346;-81
2022/12/21 19:56:54;;;;;;;4.83;1.10;;;;;;;3.71;86.86;99725.19;10550532;27;20236;-84
2022/12/21 20:02:28;;;;;;;2.77;1.20;;;;;;;3.42;87.86;99712.28;10521744;28;20202;-84
2022/12/21 20:07:51;;;;;;;4.67;1.13;;;;;;;3.25;89.39;99700.88;10500739;28;20254;-83
2022/12/21 20:13:15;;;;;;;0.97;0.70;;;;;;;3.50;89.12;99687.66;10518678;28;20339;-84
2022/12/21 20:18:37;;;;;;;1.93;1.03;;;;;;;3.33;90.15;99694.63;10516643;28;20225;-82
2022/12/21 20:23:59;;;;;;;1.00;0.67;;;;;;;3.17;90.45;99676.47;10530805;28;20195;-85
2022/12/21 20:29:22;;;;;;;1.47;0.90;;;;;;;3.49;89.73;99669.28;10501935;28;20222;-83
2022/12/21 20:34:44;;;;;;;3.83;1.73;;;;;;;3.32;90.63;99667.88;10502841;28;20224;-83
2022/12/21 20:40:08;;;;;;;3.67;1.40;;;;;;;3.25;90.77;99661.91;10519411;28;20216;-84
2022/12/21 20:45:35;;;;;;;2.10;1.30;;;;;;;3.55;90.22;99659.72;10526147;28;20186;-86
2022/12/21 20:50:57;;;;;;;3.03;1.47;;;;;;;3.53;90.86;99659.22;10525303;28;20581;-87
2022/12/21 20:56:34;;;;;;;1.73;1.43;;;;;;;3.35;90.72;99649.75;10538896;28;20267;-86
2022/12/21 21:01:56;;;;;;;3.33;1.37;;;;;;;3.31;91.37;99645.91;10522488;28;20209;-85
2022/12/21 21:07:26;;;;;;;2.37;1.67;;;;;;;3.60;90.00;99642.91;10496059;28;20194;-85
2022/12/21 21:12:48;;;;;;;2.53;1.70;;;;;;;3.62;90.68;99641.47;10521548;28;20235;-86
2022/12/21 21:18:16;;;;;;;1.77;1.53;;;;;;;3.60;90.47;99640.13;10522434;27;20194;-85
2022/12/21 21:23:39;;;;;;;3.13;1.60;;;;;;;3.54;90.52;99638.56;10496661;28;20210;-84
2022/12/21 21:29:01;;;;;;;3.03;1.63;;;;;;;3.57;91.65;99629.59;10492603;28;20223;-84
2022/12/21 21:34:23;;;;;;;1.77;1.63;;;;;;;3.73;91.22;99630.97;10523681;28;20198;-84
2022/12/21 21:45:26;;;;;;;1.57;1.47;;;;;;;3.47;93.60;99611.09;10516302;28;20221;-84
2022/12/21 21:50:48;;;;;;;5.27;1.90;;;;;;;3.63;93.74;99615.28;10519019;28;20245;-84
2022/12/21 21:56:25;;;;;;;2.13;1.93;;;;;;;3.87;92.16;99606.75;10505679;28;20225;-85
2022/12/21 22:01:49;;;;;;;3.23;2.20;;;;;;;3.69;92.42;99605.66;10537413;28;20228;-85
2022/12/21 22:07:11;;;;;;;2.30;2.10;;;;;;;3.52;92.76;99590.69;10491205;28;20199;-85
2022/12/21 22:12:33;;;;;;;2.87;1.97;;;;;;;3.41;94.13;99596.44;10482712;28;20223;-84
2022/12/21 22:17:56;;;;;;;4.03;2.47;;;;;;;3.64;93.80;99591.84;10496390;28;20199;-85
2022/12/21 22:46:12;;;;;;;3.80;2.20;;;;;;;3.72;91.95;99545.69;10526800;28;20221;-86
2022/12/21 22:51:35;;;;;;;2.63;2.43;;;;;;;4.03;90.86;99545.94;10496625;28;20227;-85
2022/12/21 22:56:57;;;;;;;3.27;2.30;;;;;;;3.81;91.30;99541.91;10482125;28;20290;-85
2022/12/21 23:02:20;;;;;;;3.90;2.40;;;;;;;3.87;91.09;99541.81;10467474;28;20207;-86
2022/12/21 23:07:42;;;;;;;3.23;2.80;;;;;;;3.85;91.31;99544.91;10497135;28;20252;-84
2022/12/21 23:18:52;;;;;;;3.77;3.47;;;;;;;3.66;91.53;99533.03;10502564;28;20271;-83
2022/12/21 23:29:58;;;;;;;4.83;4.43;;;;;;;4.12;91.09;99517.00;10503391;28;20230;-84
